Time;durP1;ratioP1;P1;durP2;ratioP2;P2;SDS_P1;SDS_P2;PMS_P1;PMS_P2;Temp;Humidity;BMP_temperature;BMP_pressure;BME280_temperature;BME280_humidity;BME280_pressure;Samples;Min_cycle;Max_cycle;Signal;HPM_P1;HPM_P2
2022/03/31 00:00:35;;;;;;;2.20;1.60;;;3.20;99.90;;;;;;5063580;28;21050;-45
2022/03/31 00:03:04;;;;;;;2.17;1.73;;;3.20;99.90;;;;;;5057874;28;20221;-43
2022/03/31 00:05:31;;;;;;;2.10;1.87;;;3.20;99.90;;;;;;5063055;28;20210;-47
2022/03/31 00:07:59;;;;;;;2.73;1.93;;;3.30;99.90;;;;;;5058928;28;20221;-43
2022/03/31 00:10:27;;;;;;;2.40;2.20;;;3.30;99.90;;;;;;5060118;28;20183;-45
2022/03/31 00:12:56;;;;;;;2.03;1.70;;;3.30;99.90;;;;;;5064073;28;20222;-43
2022/03/31 00:15:24;;;;;;;3.93;1.90;;;3.30;99.90;;;;;;5060901;28;20191;-45
2022/03/31 00:17:53;;;;;;;1.97;1.77;;;3.30;99.90;;;;;;5058924;28;20187;-43
2022/03/31 00:20:19;;;;;;;2.40;2.10;;;3.20;99.90;;;;;;5060329;28;20186;-46
2022/03/31 00:22:46;;;;;;;5.33;2.00;;;3.20;99.90;;;;;;5064263;28;20201;-44
2022/03/31 00:25:14;;;;;;;2.50;2.30;;;3.20;99.90;;;;;;5049722;28;20256;-43
2022/03/31 00:27:42;;;;;;;2.20;1.97;;;3.10;99.90;;;;;;5063181;28;20217;-42
2022/03/31 00:30:14;;;;;;;2.50;2.30;;;3.10;99.90;;;;;;5060638;28;20287;-43
2022/03/31 00:32:42;;;;;;;2.73;2.27;;;3.10;99.90;;;;;;5064293;28;20191;-43
2022/03/31 00:35:13;;;;;;;5.30;2.30;;;3.10;99.90;;;;;;5056280;28;20198;-42
2022/03/31 00:37:41;;;;;;;3.40;2.57;;;3.10;99.90;;;;;;5063249;28;20197;-45
2022/03/31 00:40:09;;;;;;;2.70;2.40;;;3.00;99.90;;;;;;5042509;28;20217;-46
2022/03/31 00:42:41;;;;;;;2.77;2.00;;;3.10;99.90;;;;;;5049871;28;20206;-45
2022/03/31 00:45:16;;;;;;;2.50;2.20;;;3.10;99.90;;;;;;5055768;28;20202;-44
2022/03/31 00:47:43;;;;;;;3.77;3.00;;;3.10;99.90;;;;;;5057961;28;20263;-46
2022/03/31 00:50:13;;;;;;;2.80;2.60;;;2.90;99.90;;;;;;5047482;28;20221;-43
2022/03/31 00:52:41;;;;;;;2.80;2.53;;;2.90;99.90;;;;;;5064157;28;20222;-44
2022/03/31 00:55:09;;;;;;;3.57;2.50;;;2.80;99.90;;;;;;5047871;28;20217;-46
2022/03/31 00:57:37;;;;;;;3.93;2.30;;;2.80;99.90;;;;;;5062448;28;20207;-45
2022/03/31 01:00:05;;;;;;;2.60;2.40;;;2.70;99.90;;;;;;5061695;28;20202;-42
2022/03/31 01:02:33;;;;;;;5.40;3.00;;;2.80;99.90;;;;;;5062474;28;20277;-46
2022/03/31 01:05:00;;;;;;;3.60;3.13;;;2.90;99.90;;;;;;5054209;28;20736;-47
2022/03/31 01:07:29;;;;;;;2.80;2.60;;;2.70;99.90;;;;;;5057121;28;20222;-47
2022/03/31 01:09:57;;;;;;;3.33;2.80;;;2.70;99.90;;;;;;5053022;28;20206;-43
2022/03/31 01:12:24;;;;;;;3.37;2.87;;;2.70;99.90;;;;;;5059796;28;20200;-42
2022/03/31 01:15:06;;;;;;;3.27;2.73;;;2.60;99.90;;;;;;5063620;28;20198;-42
2022/03/31 01:17:33;;;;;;;3.20;2.70;;;2.60;99.90;;;;;;5060463;28;20202;-43
2022/03/31 01:20:00;;;;;;;3.80;3.17;;;2.50;99.90;;;;;;5053073;28;20202;-44
2022/03/31 01:22:31;;;;;;;4.57;3.20;;;2.50;99.90;;;;;;5057582;28;20326;-41
2022/03/31 01:25:01;;;;;;;4.77;3.77;;;2.50;99.90;;;;;;5057571;28;20194;-46
2022/03/31 01:27:28;;;;;;;4.97;3.43;;;2.40;99.90;;;;;;5053867;28;20210;-41
2022/03/31 01:29:55;;;;;;;3.67;3.37;;;2.40;99.90;;;;;;5062991;28;20209;-42
2022/03/31 01:32:22;;;;;;;3.63;3.30;;;2.30;99.90;;;;;;5059598;28;20301;-42
2022/03/31 01:34:49;;;;;;;5.47;3.47;;;2.30;99.90;;;;;;5055398;28;20209;-42
2022/03/31 01:37:16;;;;;;;3.50;3.20;;;2.30;99.90;;;;;;5052915;28;20221;-44
2022/03/31 01:39:43;;;;;;;4.47;3.20;;;2.30;99.90;;;;;;5062752;28;20206;-42
2022/03/31 01:42:12;;;;;;;3.50;3.10;;;2.20;99.90;;;;;;5042258;28;20222;-42
2022/03/31 01:44:39;;;;;;;4.87;3.23;;;2.20;99.90;;;;;;5063346;28;20663;-42
2022/03/31 01:47:06;;;;;;;3.60;3.20;;;2.20;99.90;;;;;;5059502;28;20217;-42
2022/03/31 01:49:32;;;;;;;4.50;3.30;;;2.20;99.90;;;;;;5061355;28;20222;-47
2022/03/31 01:51:59;;;;;;;4.70;3.63;;;2.20;99.90;;;;;;5053426;28;20279;-48
2022/03/31 01:54:26;;;;;;;4.43;3.20;;;2.20;99.90;;;;;;5056856;28;20197;-43
2022/03/31 01:56:54;;;;;;;4.33;3.53;;;2.20;99.90;;;;;;5048280;28;20245;-42
2022/03/31 01:59:22;;;;;;;3.67;3.37;;;2.20;99.90;;;;;;5058778;28;20192;-43
2022/03/31 02:01:49;;;;;;;7.23;3.10;;;2.20;99.90;;;;;;5062560;28;20224;-42
2022/03/31 02:04:17;;;;;;;4.40;3.97;;;2.20;99.90;;;;;;5058531;28;20243;-43
2022/03/31 02:06:43;;;;;;;3.67;3.30;;;2.10;99.90;;;;;;5054313;28;20218;-42
2022/03/31 02:09:10;;;;;;;3.83;3.43;;;2.10;99.90;;;;;;5054325;28;20254;-45
2022/03/31 02:11:37;;;;;;;3.97;3.33;;;2.10;99.90;;;;;;5046530;28;20207;-43
2022/03/31 02:14:04;;;;;;;6.33;3.83;;;2.00;99.90;;;;;;5058465;28;20217;-42
2022/03/31 02:16:32;;;;;;;3.90;3.60;;;2.00;99.90;;;;;;5060166;28;20221;-42
2022/03/31 02:18:59;;;;;;;4.90;3.80;;;2.00;99.90;;;;;;5061384;28;20193;-43
2022/03/31 02:21:26;;;;;;;6.10;3.83;;;1.90;99.90;;;;;;5052664;28;20217;-42
2022/03/31 02:23:54;;;;;;;4.83;4.37;;;1.90;99.90;;;;;;5057378;28;20289;-42
2022/03/31 02:26:21;;;;;;;6.07;3.80;;;1.90;99.90;;;;;;5058087;28;20210;-42
2022/03/31 02:28:48;;;;;;;5.73;4.27;;;1.90;99.90;;;;;;5049537;28;20627;-43
2022/03/31 02:31:15;;;;;;;4.33;3.93;;;1.80;99.90;;;;;;5058532;28;20377;-42
2022/03/31 02:37:49;;;;;;;4.63;4.00;;;1.80;99.90;;;;;;5052432;28;20216;-42
2022/03/31 02:40:42;;;;;;;4.70;4.13;;;1.80;99.90;;;;;;5062903;28;20823;-42
2022/03/31 02:43:10;;;;;;;8.70;4.20;;;1.70;99.90;;;;;;5049475;28;20658;-44
2022/03/31 02:45:37;;;;;;;4.20;3.83;;;1.70;99.90;;;;;;5060796;28;20229;-42
2022/03/31 02:48:04;;;;;;;4.93;4.07;;;1.70;99.90;;;;;;5059900;28;20247;-44
2022/03/31 02:50:31;;;;;;;5.80;4.63;;;1.70;99.90;;;;;;5060736;28;20280;-44
2022/03/31 02:55:44;;;;;;;5.63;4.37;;;1.70;99.90;;;;;;5057399;28;20225;-43
2022/03/31 02:58:10;;;;;;;5.37;4.47;;;1.70;99.90;;;;;;5058644;28;20209;-44
2022/03/31 03:00:38;;;;;;;4.73;4.33;;;1.70;99.90;;;;;;5048135;28;20302;-44
2022/03/31 03:03:04;;;;;;;5.27;4.77;;;1.60;99.90;;;;;;5060096;28;20287;-45
2022/03/31 03:05:32;;;;;;;6.57;5.20;;;1.60;99.90;;;;;;5060589;28;20217;-43
2022/03/31 03:08:00;;;;;;;7.17;5.13;;;1.60;99.90;;;;;;5044963;28;20587;-44
2022/03/31 03:10:27;;;;;;;5.90;5.30;;;1.70;99.90;;;;;;5058818;28;20201;-43
2022/03/31 03:12:56;;;;;;;5.63;5.07;;;1.60;99.90;;;;;;5062980;28;20536;-45
2022/03/31 03:15:25;;;;;;;7.73;5.30;;;1.60;99.90;;;;;;5049246;28;20215;-42
2022/03/31 03:17:52;;;;;;;6.83;5.03;;;1.60;99.90;;;;;;5060776;28;20729;-42
2022/03/31 03:20:19;;;;;;;5.03;4.53;;;1.60;99.90;;;;;;5063642;28;20194;-44
2022/03/31 03:22:47;;;;;;;5.93;5.13;;;1.60;99.90;;;;;;5064426;28;20244;-42
2022/03/31 03:25:17;;;;;;;5.70;4.53;;;1.60;99.90;;;;;;5050206;28;20220;-47
2022/03/31 03:27:46;;;;;;;7.27;5.33;;;1.60;99.90;;;;;;5064183;28;20202;-46
2022/03/31 03:30:13;;;;;;;6.67;5.80;;;1.60;99.90;;;;;;5061977;28;20227;-42
2022/03/31 03:32:40;;;;;;;6.93;5.27;;;1.50;99.90;;;;;;5052427;28;20212;-42
2022/03/31 03:35:08;;;;;;;5.87;5.27;;;1.50;99.90;;;;;;5060712;28;20198;-42
2022/03/31 03:37:36;;;;;;;6.63;5.00;;;1.50;99.90;;;;;;5064997;28;20205;-42
2022/03/31 03:40:05;;;;;;;5.60;5.20;;;1.50;99.90;;;;;;5053788;28;20197;-44
2022/03/31 03:42:33;;;;;;;6.80;6.20;;;1.50;99.90;;;;;;5064930;28;20197;-43
2022/03/31 03:45:01;;;;;;;7.43;5.40;;;1.50;99.90;;;;;;5061253;28;20546;-43
2022/03/31 03:47:29;;;;;;;6.17;5.60;;;1.40;99.90;;;;;;5047893;28;20225;-42
2022/03/31 03:49:56;;;;;;;5.80;5.20;;;1.40;99.90;;;;;;5056267;28;20221;-44
2022/03/31 03:52:23;;;;;;;6.37;5.33;;;1.30;99.90;;;;;;5064312;28;20205;-46
2022/03/31 03:54:51;;;;;;;8.10;5.13;;;1.40;99.90;;;;;;5058356;28;20198;-44
2022/03/31 03:57:18;;;;;;;6.13;4.60;;;1.30;99.90;;;;;;5055183;28;20211;-45
2022/03/31 03:59:47;;;;;;;5.63;5.00;;;1.30;99.90;;;;;;5064450;28;20585;-43
2022/03/31 04:02:14;;;;;;;6.13;5.03;;;1.30;99.90;;;;;;5054474;28;20196;-43
2022/03/31 04:04:42;;;;;;;5.50;4.90;;;1.30;99.90;;;;;;5050628;28;20213;-43
2022/03/31 04:07:09;;;;;;;5.43;4.93;;;1.30;99.90;;;;;;5054512;28;20226;-48
2022/03/31 04:09:36;;;;;;;7.47;5.27;;;1.30;99.90;;;;;;5064917;28;20224;-43
2022/03/31 04:12:03;;;;;;;6.53;5.57;;;1.30;99.90;;;;;;5047978;28;20916;-43
2022/03/31 04:14:30;;;;;;;5.73;4.50;;;1.30;99.90;;;;;;5061768;28;20205;-45
2022/03/31 04:16:58;;;;;;;5.20;4.80;;;1.20;99.90;;;;;;5060968;28;20631;-44
2022/03/31 04:19:25;;;;;;;5.47;4.73;;;1.20;99.90;;;;;;5051713;28;20201;-42
2022/03/31 04:21:51;;;;;;;6.13;5.10;;;1.20;99.90;;;;;;5061725;28;20527;-44
2022/03/31 04:24:18;;;;;;;6.47;5.00;;;1.10;99.90;;;;;;5062398;28;20197;-44
2022/03/31 04:26:45;;;;;;;5.50;5.00;;;1.10;99.90;;;;;;5057454;28;20241;-45
2022/03/31 04:29:12;;;;;;;5.50;5.00;;;1.10;99.90;;;;;;5055497;28;20760;-43
2022/03/31 04:31:41;;;;;;;5.37;4.20;;;1.10;99.90;;;;;;5057697;28;20569;-44
2022/03/31 04:34:10;;;;;;;5.20;4.80;;;1.10;99.90;;;;;;5045467;28;20205;-43
2022/03/31 04:36:37;;;;;;;5.50;4.97;;;1.10;99.90;;;;;;5063375;28;20224;-48
2022/03/31 04:39:04;;;;;;;5.23;4.73;;;1.10;99.90;;;;;;5059719;28;20221;-45
2022/03/31 04:41:31;;;;;;;5.20;4.70;;;1.10;99.90;;;;;;5059443;28;20217;-43
2022/03/31 04:43:58;;;;;;;5.37;4.87;;;1.10;99.90;;;;;;5049081;28;20213;-45
2022/03/31 04:46:25;;;;;;;4.53;4.07;;;1.10;99.90;;;;;;5055146;28;20278;-43
2022/03/31 04:48:52;;;;;;;5.33;4.83;;;1.10;99.90;;;;;;5053365;28;20221;-46
2022/03/31 04:51:20;;;;;;;5.40;4.90;;;1.00;99.90;;;;;;5053900;28;20969;-45
2022/03/31 04:53:47;;;;;;;4.17;3.77;;;1.00;99.90;;;;;;5056631;28;20669;-47
2022/03/31 04:56:16;;;;;;;5.77;4.50;;;1.00;99.90;;;;;;5054846;28;20216;-43
2022/03/31 04:58:43;;;;;;;4.80;4.27;;;1.00;99.90;;;;;;5045397;28;20205;-44
2022/03/31 05:01:10;;;;;;;5.50;4.50;;;1.00;99.90;;;;;;5059149;28;20946;-44
2022/03/31 05:03:37;;;;;;;4.77;4.37;;;1.00;99.90;;;;;;5056843;28;20211;-47
2022/03/31 05:06:04;;;;;;;4.73;4.20;;;1.00;99.90;;;;;;5044968;28;20217;-44
2022/03/31 05:08:32;;;;;;;5.10;4.60;;;1.00;99.90;;;;;;5055795;28;20199;-43
2022/03/31 05:10:59;;;;;;;4.43;3.70;;;1.00;99.90;;;;;;5058122;28;20926;-44
2022/03/31 05:13:26;;;;;;;4.20;3.90;;;1.00;99.90;;;;;;5055636;28;20681;-44
2022/03/31 05:15:53;;;;;;;5.10;4.60;;;1.00;99.90;;;;;;5048593;28;20584;-47
2022/03/31 05:18:20;;;;;;;4.50;3.97;;;1.00;99.90;;;;;;5060842;28;20219;-45
2022/03/31 05:20:47;;;;;;;3.93;3.63;;;0.90;99.90;;;;;;5048656;28;20209;-46
2022/03/31 05:23:14;;;;;;;5.37;4.10;;;0.90;99.90;;;;;;5055031;28;20205;-48
2022/03/31 05:25:42;;;;;;;6.10;4.47;;;0.90;99.90;;;;;;5056722;28;20220;-45
2022/03/31 05:28:09;;;;;;;4.67;4.27;;;0.90;99.90;;;;;;5054097;28;20281;-46
2022/03/31 05:30:36;;;;;;;5.00;4.03;;;0.80;99.90;;;;;;5051862;28;20727;-44
2022/03/31 05:33:03;;;;;;;4.67;4.00;;;0.80;99.90;;;;;;5057863;28;20210;-47
2022/03/31 05:35:30;;;;;;;5.23;4.20;;;0.80;99.90;;;;;;5061414;28;20272;-44
2022/03/31 05:37:57;;;;;;;4.33;3.93;;;0.90;99.90;;;;;;5039280;28;20257;-48
2022/03/31 05:40:24;;;;;;;4.47;4.07;;;0.80;99.90;;;;;;5056981;28;20635;-44
2022/03/31 05:42:55;;;;;;;4.67;4.23;;;0.80;99.90;;;;;;5059903;28;20202;-46
2022/03/31 05:45:22;;;;;;;5.07;4.13;;;0.80;99.90;;;;;;5056728;28;20288;-46
2022/03/31 05:47:49;;;;;;;4.70;4.17;;;0.80;99.90;;;;;;5050344;28;20204;-43
2022/03/31 05:50:17;;;;;;;4.47;4.00;;;0.80;99.90;;;;;;5060939;28;20733;-45
2022/03/31 05:52:44;;;;;;;5.87;4.10;;;0.70;99.90;;;;;;5038025;28;20261;-43
2022/03/31 05:55:13;;;;;;;4.07;3.67;;;0.70;99.90;;;;;;5055282;28;20247;-43
2022/03/31 05:57:41;;;;;;;4.13;3.80;;;0.70;99.90;;;;;;5058073;28;20200;-45
2022/03/31 06:00:11;;;;;;;4.20;3.80;;;0.70;99.90;;;;;;5059622;28;20204;-43
2022/03/31 06:02:38;;;;;;;4.37;3.70;;;0.70;99.90;;;;;;5049013;28;20213;-44
2022/03/31 06:05:07;;;;;;;4.87;3.63;;;0.70;99.90;;;;;;5059768;28;20196;-45
2022/03/31 06:07:33;;;;;;;4.20;3.57;;;0.70;99.90;;;;;;5053816;28;20196;-47
2022/03/31 06:10:00;;;;;;;4.23;3.57;;;0.70;99.90;;;;;;5035151;28;20228;-45
2022/03/31 06:12:27;;;;;;;5.13;4.37;;;0.60;99.90;;;;;;5058611;28;20197;-46
2022/03/31 06:14:54;;;;;;;4.13;3.73;;;0.60;99.90;;;;;;5049566;28;20214;-43
2022/03/31 06:17:23;;;;;;;4.10;3.33;;;0.60;99.90;;;;;;5051634;28;20623;-44
2022/03/31 06:19:50;;;;;;;4.47;3.63;;;0.60;99.90;;;;;;5056745;28;20245;-44
2022/03/31 06:22:17;;;;;;;4.57;3.20;;;0.60;99.90;;;;;;5061820;28;20204;-44
2022/03/31 06:24:43;;;;;;;3.97;3.33;;;0.60;99.90;;;;;;5042006;28;20208;-49
2022/03/31 06:27:11;;;;;;;4.90;3.63;;;0.60;99.90;;;;;;5055417;28;20222;-44
2022/03/31 06:29:40;;;;;;;3.53;2.90;;;0.60;99.90;;;;;;5058959;28;20227;-45
2022/03/31 06:32:08;;;;;;;5.07;3.30;;;0.60;99.90;;;;;;5059117;28;20210;-43
2022/03/31 06:34:37;;;;;;;3.87;3.57;;;0.50;99.90;;;;;;5053457;28;20205;-44
2022/03/31 06:37:04;;;;;;;3.60;3.17;;;0.50;99.90;;;;;;5058969;28;20948;-43
2022/03/31 06:39:31;;;;;;;5.07;3.33;;;0.50;99.90;;;;;;5048059;28;20211;-44
2022/03/31 06:41:58;;;;;;;4.23;3.33;;;0.50;99.90;;;;;;5053830;28;21290;-44
2022/03/31 06:44:25;;;;;;;3.77;3.30;;;0.50;99.90;;;;;;5059774;28;20262;-43
2022/03/31 06:46:52;;;;;;;3.90;3.60;;;0.50;99.90;;;;;;5053734;28;20218;-43
2022/03/31 06:49:21;;;;;;;4.30;3.60;;;0.50;99.90;;;;;;5060927;28;20207;-43
2022/03/31 06:51:48;;;;;;;6.53;3.23;;;0.40;99.90;;;;;;5061125;28;20187;-43
2022/03/31 06:54:15;;;;;;;5.70;3.77;;;0.50;99.90;;;;;;5052735;28;20218;-45
2022/03/31 06:56:42;;;;;;;3.87;3.53;;;0.40;99.90;;;;;;5056945;28;20290;-44
2022/03/31 06:59:09;;;;;;;4.20;3.23;;;0.40;99.90;;;;;;5064679;28;20207;-47
2022/03/31 07:01:36;;;;;;;6.57;3.70;;;0.40;99.90;;;;;;5060944;28;20209;-48
2022/03/31 07:04:04;;;;;;;4.03;3.30;;;0.50;99.90;;;;;;5053310;28;20204;-48
2022/03/31 07:06:30;;;;;;;4.57;3.80;;;0.50;99.90;;;;;;5064120;28;20250;-43
2022/03/31 07:08:59;;;;;;;3.70;3.10;;;0.50;99.90;;;;;;5044694;28;20338;-43
2022/03/31 07:11:25;;;;;;;3.53;3.30;;;0.50;99.90;;;;;;5064670;28;20784;-42
2022/03/31 07:13:52;;;;;;;7.43;3.30;;;0.50;99.90;;;;;;5057937;28;21076;-43
2022/03/31 07:16:19;;;;;;;4.83;3.70;;;0.50;99.90;;;;;;5064284;28;20306;-44
2022/03/31 07:18:45;;;;;;;3.43;3.13;;;0.50;99.90;;;;;;5053947;28;20196;-46
2022/03/31 07:21:12;;;;;;;5.50;2.87;;;0.50;99.90;;;;;;5064133;28;20196;-43
2022/03/31 07:23:40;;;;;;;4.17;3.77;;;0.50;99.90;;;;;;5062473;28;20201;-46
2022/03/31 07:26:08;;;;;;;4.37;3.00;;;0.50;99.90;;;;;;5046836;28;20238;-42
2022/03/31 07:28:34;;;;;;;4.40;3.30;;;0.50;99.90;;;;;;5061173;28;20195;-46
2022/03/31 07:31:01;;;;;;;3.20;2.83;;;0.50;99.90;;;;;;5059147;28;20208;-43
2022/03/31 07:33:28;;;;;;;4.53;3.00;;;0.50;99.90;;;;;;5056338;28;20204;-46
2022/03/31 07:35:55;;;;;;;4.10;2.60;;;0.50;99.90;;;;;;5061572;28;20210;-43
2022/03/31 07:38:22;;;;;;;4.50;3.10;;;0.50;99.90;;;;;;5064043;28;20193;-44
2022/03/31 07:40:50;;;;;;;4.57;2.90;;;0.60;99.90;;;;;;5046635;28;20203;-45
2022/03/31 07:43:18;;;;;;;3.40;3.00;;;0.60;99.90;;;;;;5061534;28;20201;-44
2022/03/31 07:45:46;;;;;;;3.33;3.03;;;0.60;99.90;;;;;;5055724;28;20214;-48
2022/03/31 07:48:15;;;;;;;2.93;2.50;;;0.60;99.90;;;;;;5065078;28;20199;-42
2022/03/31 07:50:42;;;;;;;2.87;2.63;;;0.60;99.90;;;;;;5052461;28;20663;-46
2022/03/31 07:53:10;;;;;;;4.30;3.00;;;0.70;99.90;;;;;;5062308;28;20197;-42
2022/03/31 07:55:37;;;;;;;4.60;3.37;;;0.80;99.90;;;;;;5054988;28;20701;-44
2022/03/31 07:58:04;;;;;;;3.70;3.00;;;0.80;99.90;;;;;;5057156;28;20213;-43
2022/03/31 08:00:33;;;;;;;3.50;3.20;;;0.90;99.90;;;;;;5062066;28;20201;-44
2022/03/31 08:03:01;;;;;;;4.67;2.93;;;0.90;99.90;;;;;;5057304;28;20204;-45
2022/03/31 08:05:29;;;;;;;4.33;2.87;;;1.00;99.90;;;;;;5056670;28;20223;-43
2022/03/31 08:07:57;;;;;;;4.27;3.03;;;1.00;99.90;;;;;;5060461;28;20745;-43
2022/03/31 08:10:25;;;;;;;4.40;2.93;;;1.00;99.90;;;;;;5064085;28;20217;-44
2022/03/31 08:12:52;;;;;;;4.63;3.07;;;1.10;99.90;;;;;;5044301;28;20208;-44
2022/03/31 08:15:19;;;;;;;5.70;3.17;;;1.10;99.90;;;;;;5062522;28;20202;-43
2022/03/31 08:17:48;;;;;;;4.80;3.03;;;1.10;99.90;;;;;;5059092;28;20197;-45
2022/03/31 08:20:16;;;;;;;3.13;2.90;;;1.20;99.90;;;;;;5057217;28;20673;-43
2022/03/31 08:22:43;;;;;;;3.53;2.87;;;1.10;99.90;;;;;;5060705;28;20201;-45
2022/03/31 08:25:12;;;;;;;3.03;2.73;;;1.20;99.90;;;;;;5058377;28;20205;-47
2022/03/31 08:27:39;;;;;;;3.27;2.97;;;1.30;99.90;;;;;;5046613;28;20213;-44
2022/03/31 08:30:09;;;;;;;4.07;3.37;;;1.30;99.90;;;;;;5062393;28;20220;-44
2022/03/31 08:32:38;;;;;;;4.37;2.93;;;1.30;99.90;;;;;;5059295;28;20198;-43
2022/03/31 08:35:09;;;;;;;3.73;2.57;;;1.40;99.90;;;;;;5062209;28;20193;-44
2022/03/31 08:37:37;;;;;;;2.90;2.70;;;1.40;99.90;;;;;;5051342;28;20220;-44
2022/03/31 08:40:04;;;;;;;3.20;2.90;;;1.40;99.90;;;;;;5056890;28;21051;-43
2022/03/31 08:42:31;;;;;;;2.97;2.73;;;1.40;99.90;;;;;;5058627;28;20280;-44
2022/03/31 08:44:59;;;;;;;2.87;2.60;;;1.50;99.90;;;;;;5052088;28;20206;-45
2022/03/31 08:47:28;;;;;;;5.03;2.90;;;1.50;99.90;;;;;;5062311;28;20217;-46
2022/03/31 08:49:56;;;;;;;4.07;2.60;;;1.60;99.90;;;;;;5059694;28;20204;-43
2022/03/31 08:52:24;;;;;;;5.63;3.23;;;1.70;99.90;;;;;;5055482;28;20655;-43
2022/03/31 08:54:51;;;;;;;2.90;2.57;;;1.70;99.90;;;;;;5059291;28;20256;-44
2022/03/31 08:57:18;;;;;;;2.83;2.57;;;1.70;99.90;;;;;;5057155;28;20230;-43
2022/03/31 08:59:45;;;;;;;4.93;2.57;;;1.70;99.90;;;;;;5046264;28;20205;-47
2022/03/31 09:02:23;;;;;;;2.80;2.50;;;1.80;99.90;;;;;;5059172;28;20209;-47
2022/03/31 09:05:00;;;;;;;4.40;3.13;;;1.90;99.90;;;;;;5058159;28;20209;-47
2022/03/31 09:07:28;;;;;;;3.00;2.80;;;1.90;99.90;;;;;;5062123;28;20217;-44
2022/03/31 09:09:55;;;;;;;2.83;2.57;;;1.90;99.90;;;;;;5052377;28;20209;-43
2022/03/31 09:12:22;;;;;;;3.03;2.73;;;1.90;99.90;;;;;;5057808;28;20215;-44
2022/03/31 09:14:49;;;;;;;4.87;2.40;;;2.00;99.90;;;;;;5045465;28;20202;-43
2022/03/31 09:17:17;;;;;;;2.50;2.30;;;2.00;99.90;;;;;;5061624;28;20234;-43
2022/03/31 09:19:44;;;;;;;4.27;2.50;;;2.00;99.90;;;;;;5056809;28;20207;-44
2022/03/31 09:22:11;;;;;;;3.70;2.90;;;2.00;99.90;;;;;;5062086;28;20539;-43
2022/03/31 09:24:39;;;;;;;3.97;2.60;;;2.10;99.90;;;;;;5053131;28;20216;-46
2022/03/31 09:27:06;;;;;;;2.60;2.40;;;2.10;99.90;;;;;;5059928;28;20245;-42
2022/03/31 09:29:34;;;;;;;3.00;2.60;;;2.20;99.90;;;;;;5055529;28;20254;-48
2022/03/31 09:32:10;;;;;;;3.33;2.17;;;2.20;99.90;;;;;;5053910;28;20237;-43
2022/03/31 09:34:41;;;;;;;6.60;2.60;;;2.20;99.90;;;;;;5058602;28;20205;-45
2022/03/31 09:37:08;;;;;;;2.57;2.37;;;2.30;99.90;;;;;;5061297;28;20218;-42
2022/03/31 09:39:35;;;;;;;4.83;2.60;;;2.30;99.90;;;;;;5050341;28;20204;-44
2022/03/31 09:42:11;;;;;;;2.70;2.50;;;2.30;99.90;;;;;;5059596;28;20193;-45
2022/03/31 09:44:38;;;;;;;5.03;3.00;;;2.30;99.90;;;;;;5039964;28;20213;-43
2022/03/31 09:47:05;;;;;;;3.63;2.90;;;2.30;99.90;;;;;;5056804;28;20229;-43
2022/03/31 09:49:32;;;;;;;2.67;2.47;;;2.30;99.90;;;;;;5062875;28;20205;-46
2022/03/31 09:52:00;;;;;;;3.47;2.70;;;2.40;99.90;;;;;;5059607;28;20213;-44
2022/03/31 09:54:30;;;;;;;5.23;2.33;;;2.50;99.90;;;;;;5060961;28;20194;-46
2022/03/31 09:56:58;;;;;;;3.00;2.63;;;2.50;99.90;;;;;;5053614;28;21019;-43
2022/03/31 09:59:31;;;;;;;2.47;2.23;;;2.50;99.90;;;;;;5050886;28;20263;-42
2022/03/31 10:01:59;;;;;;;6.70;3.70;;;2.60;99.90;;;;;;5042296;28;20190;-45
2022/03/31 10:04:26;;;;;;;2.80;2.60;;;2.70;99.90;;;;;;5061629;28;20256;-43
2022/03/31 10:06:53;;;;;;;2.67;2.47;;;2.70;99.90;;;;;;5051901;28;20302;-45
2022/03/31 10:09:22;;;;;;;4.07;2.37;;;2.70;99.90;;;;;;5061585;28;20199;-43
2022/03/31 10:11:53;;;;;;;2.80;2.60;;;2.90;99.90;;;;;;5050988;28;20216;-43
2022/03/31 10:14:28;;;;;;;3.73;2.60;;;3.00;99.90;;;;;;5054988;28;20220;-44
2022/03/31 10:16:58;;;;;;;2.30;2.10;;;3.00;99.90;;;;;;5042585;28;20221;-45
2022/03/31 10:19:30;;;;;;;3.17;2.30;;;3.10;99.90;;;;;;5063721;28;20202;-42
2022/03/31 10:21:58;;;;;;;3.63;2.50;;;3.10;99.90;;;;;;5061826;28;20273;-42
2022/03/31 10:24:44;;;;;;;3.97;2.60;;;3.10;99.90;;;;;;5066085;28;20250;-45
2022/03/31 10:27:15;;;;;;;4.07;2.47;;;3.30;99.90;;;;;;5057721;28;20214;-47
2022/03/31 10:29:45;;;;;;;2.60;2.30;;;3.30;99.90;;;;;;5052410;28;20206;-45
2022/03/31 10:32:17;;;;;;;3.97;2.50;;;3.40;99.90;;;;;;5049229;28;20229;-47
2022/03/31 10:34:48;;;;;;;2.30;2.10;;;3.50;99.90;;;;;;5056647;28;20577;-43
2022/03/31 10:37:16;;;;;;;5.03;2.67;;;3.60;99.90;;;;;;5065477;28;20304;-43
2022/03/31 10:39:55;;;;;;;3.10;2.20;;;3.60;99.90;;;;;;5061093;28;20528;-43
2022/03/31 10:42:22;;;;;;;2.40;2.20;;;3.70;99.90;;;;;;5047619;28;20460;-47
2022/03/31 10:44:48;;;;;;;3.33;2.30;;;3.80;99.90;;;;;;5064405;28;20210;-45
2022/03/31 10:47:16;;;;;;;2.23;2.03;;;3.90;99.90;;;;;;5037524;28;20226;-42
2022/03/31 10:49:52;;;;;;;2.83;2.10;;;3.90;99.90;;;;;;5068289;28;20194;-43
2022/03/31 10:52:23;;;;;;;2.97;2.30;;;4.00;99.90;;;;;;5053349;28;20843;-44
2022/03/31 10:54:51;;;;;;;3.43;1.90;;;4.10;99.90;;;;;;5063513;28;20191;-43
2022/03/31 10:57:19;;;;;;;2.13;1.80;;;4.20;99.90;;;;;;5059169;28;20240;-44
2022/03/31 10:59:48;;;;;;;2.10;2.00;;;4.30;99.90;;;;;;5056880;28;20194;-42
2022/03/31 11:02:18;;;;;;;2.00;1.80;;;4.30;99.90;;;;;;5043783;28;20210;-44
2022/03/31 11:04:47;;;;;;;2.17;1.97;;;4.30;99.90;;;;;;5064644;28;20558;-42
2022/03/31 11:07:20;;;;;;;1.73;1.63;;;4.30;99.90;;;;;;5061114;28;21007;-43
2022/03/31 11:09:48;;;;;;;2.27;2.07;;;4.40;99.90;;;;;;5065726;28;20199;-43
2022/03/31 11:12:27;;;;;;;1.70;1.60;;;4.50;99.90;;;;;;5059276;28;20218;-43
2022/03/31 11:14:59;;;;;;;2.13;1.47;;;4.50;99.90;;;;;;5060218;28;20291;-42
2022/03/31 11:17:28;;;;;;;1.67;1.57;;;4.60;99.90;;;;;;5058206;28;20943;-41
2022/03/31 11:19:55;;;;;;;1.77;1.67;;;4.70;99.90;;;;;;5057645;28;20205;-47
2022/03/31 11:22:23;;;;;;;1.30;1.10;;;4.70;99.90;;;;;;5061434;28;20698;-41
2022/03/31 11:24:51;;;;;;;1.53;1.43;;;4.70;99.90;;;;;;5063444;28;20210;-44
2022/03/31 11:27:36;;;;;;;3.47;1.53;;;4.60;99.90;;;;;;5059682;28;20203;-45
2022/03/31 11:30:04;;;;;;;1.33;1.23;;;4.70;99.90;;;;;;5054623;28;20315;-45
2022/03/31 11:32:33;;;;;;;1.23;1.13;;;4.80;99.90;;;;;;5056181;28;20222;-42
2022/03/31 11:34:59;;;;;;;1.47;1.37;;;4.90;99.90;;;;;;5053684;28;20211;-42
2022/03/31 11:37:26;;;;;;;2.43;1.13;;;5.00;99.90;;;;;;5059443;28;20301;-41
2022/03/31 11:39:53;;;;;;;1.23;1.17;;;5.10;99.90;;;;;;5064589;28;20202;-44
2022/03/31 11:42:20;;;;;;;3.23;1.33;;;5.30;99.90;;;;;;5060287;28;20976;-45
2022/03/31 11:44:47;;;;;;;1.80;1.10;;;5.40;99.90;;;;;;5056071;28;20210;-42
2022/03/31 11:47:18;;;;;;;1.20;1.10;;;5.40;99.90;;;;;;5059749;28;20237;-43
2022/03/31 11:49:57;;;;;;;3.20;1.40;;;5.50;99.90;;;;;;5046038;28;20207;-42
2022/03/31 11:52:30;;;;;;;1.30;1.20;;;5.50;99.90;;;;;;5060653;28;20829;-44
2022/03/31 11:54:59;;;;;;;2.20;1.10;;;5.60;99.90;;;;;;5059725;28;20195;-42
2022/03/31 11:57:28;;;;;;;1.03;0.90;;;5.40;99.90;;;;;;5060938;28;20230;-46
2022/03/31 11:59:55;;;;;;;1.23;1.10;;;5.50;99.90;;;;;;5055188;28;20213;-43
2022/03/31 12:02:22;;;;;;;0.93;0.90;;;5.60;99.90;;;;;;5057901;28;20178;-42
2022/03/31 12:04:50;;;;;;;1.90;1.30;;;5.70;99.90;;;;;;5046389;28;20218;-42
2022/03/31 12:07:20;;;;;;;4.57;0.97;;;5.70;99.90;;;;;;5058489;28;20215;-44
2022/03/31 12:09:48;;;;;;;1.50;0.93;;;5.70;99.90;;;;;;5063874;28;20198;-43
2022/03/31 12:12:16;;;;;;;3.27;1.10;;;5.80;99.90;;;;;;5058488;28;20230;-45
2022/03/31 12:14:54;;;;;;;1.43;0.90;;;5.80;99.90;;;;;;5063565;28;20537;-45
2022/03/31 12:17:22;;;;;;;2.40;1.43;;;5.90;99.20;;;;;;5060748;28;20226;-42
2022/03/31 12:19:51;;;;;;;2.07;1.00;;;6.00;99.90;;;;;;5047481;28;21104;-43
2022/03/31 12:22:18;;;;;;;1.10;1.00;;;6.10;99.90;;;;;;5059173;28;20210;-48
2022/03/31 12:24:49;;;;;;;1.70;0.93;;;6.20;99.90;;;;;;5063065;28;20689;-46
2022/03/31 12:27:18;;;;;;;1.23;1.10;;;6.30;99.90;;;;;;5058732;28;20297;-42
2022/03/31 12:29:46;;;;;;;1.53;1.20;;;6.30;99.90;;;;;;5063604;28;20210;-43
2022/03/31 12:32:14;;;;;;;1.10;0.73;;;6.30;99.00;;;;;;5051310;28;20233;-46
2022/03/31 12:34:52;;;;;;;1.37;1.23;;;6.40;97.60;;;;;;5063232;28;20201;-44
2022/03/31 12:37:29;;;;;;;1.63;1.20;;;6.50;97.50;;;;;;5044070;28;20931;-46
2022/03/31 12:39:56;;;;;;;2.93;1.80;;;6.60;96.10;;;;;;5057132;28;20206;-44
2022/03/31 12:42:23;;;;;;;3.10;1.20;;;6.60;96.20;;;;;;5059776;28;20195;-43
2022/03/31 12:44:50;;;;;;;1.50;1.40;;;6.70;95.50;;;;;;5061374;28;20190;-44
2022/03/31 12:47:22;;;;;;;1.63;1.00;;;6.70;95.70;;;;;;5052543;28;20210;-44
2022/03/31 12:49:49;;;;;;;6.07;1.50;;;6.60;95.30;;;;;;5057502;28;20299;-46
2022/03/31 12:52:18;;;;;;;1.67;1.57;;;6.60;96.10;;;;;;5046470;28;21057;-47
2022/03/31 12:54:51;;;;;;;1.20;0.93;;;6.70;93.80;;;;;;5063080;28;20289;-44
2022/03/31 12:57:21;;;;;;;1.27;1.00;;;6.70;92.60;;;;;;5058442;28;20216;-44
2022/03/31 13:00:00;;;;;;;1.70;1.17;;;6.70;94.00;;;;;;5062908;28;20202;-46
2022/03/31 13:02:28;;;;;;;1.47;1.00;;;6.70;93.60;;;;;;5052858;28;20259;-46
2022/03/31 13:04:54;;;;;;;1.00;0.87;;;6.70;93.50;;;;;;5062906;28;20198;-44
2022/03/31 13:07:27;;;;;;;2.13;0.80;;;6.80;92.90;;;;;;5046388;28;20268;-49
2022/03/31 13:09:57;;;;;;;0.93;0.93;;;6.80;93.00;;;;;;5059628;28;20191;-47